Time;durP1;ratioP1;P1;durP2;ratioP2;P2;SDS_P1;SDS_P2;PMS_P1;PMS_P2;Temp;Humidity;BMP_temperature;BMP_pressure;BME280_temperature;BME280_humidity;BME280_pressure;Samples;Min_cycle;Max_cycle;Signal;HPM_P1;HPM_P2
2021/01/09 00:00:50;;;;;;;5.95;3.75;;;1.50;99.90;;;;;;1974408;72;21244;-73
2021/01/09 00:03:16;;;;;;;7.28;4.03;;;1.40;99.90;;;;;;1973866;72;21487;-74
2021/01/09 00:05:42;;;;;;;5.95;3.60;;;1.40;99.90;;;;;;1972578;72;21612;-73
2021/01/09 00:08:08;;;;;;;6.58;3.90;;;1.30;99.90;;;;;;1982325;72;21028;-73
2021/01/09 00:10:34;;;;;;;5.33;3.85;;;1.20;99.90;;;;;;1970677;72;21049;-73
2021/01/09 00:13:00;;;;;;;6.28;3.90;;;1.10;99.90;;;;;;1963722;72;21059;-74
2021/01/09 00:15:26;;;;;;;5.30;3.85;;;1.20;99.90;;;;;;1967975;72;21050;-74
2021/01/09 00:17:53;;;;;;;8.43;4.22;;;1.20;99.90;;;;;;1984801;72;21112;-72
2021/01/09 00:20:19;;;;;;;8.28;4.40;;;1.30;99.90;;;;;;1984819;72;21092;-74
2021/01/09 00:22:45;;;;;;;5.87;3.95;;;1.20;99.90;;;;;;1991304;72;21049;-74
2021/01/09 00:25:11;;;;;;;6.25;3.77;;;1.20;99.90;;;;;;1968478;72;21036;-73
2021/01/09 00:27:37;;;;;;;6.62;4.00;;;1.20;99.90;;;;;;1974293;72;21028;-73
2021/01/09 00:30:03;;;;;;;4.10;3.65;;;1.30;99.90;;;;;;1967960;72;21156;-74
2021/01/09 00:32:29;;;;;;;9.03;4.28;;;1.30;99.90;;;;;;1975878;72;21133;-73
2021/01/09 00:34:55;;;;;;;6.80;4.17;;;1.40;99.90;;;;;;1973982;73;21541;-73
2021/01/09 00:37:21;;;;;;;6.60;3.83;;;1.40;99.90;;;;;;1970251;72;21428;-74
2021/01/09 00:39:48;;;;;;;4.95;3.42;;;1.50;99.90;;;;;;1969712;72;21478;-73
2021/01/09 00:42:14;;;;;;;14.50;4.85;;;1.40;99.90;;;;;;1963710;72;21105;-74
2021/01/09 00:44:40;;;;;;;6.12;3.55;;;1.40;99.90;;;;;;1981013;72;21031;-72
2021/01/09 00:47:06;;;;;;;6.03;3.47;;;1.40;99.90;;;;;;1964758;72;21226;-74
2021/01/09 00:49:32;;;;;;;5.87;3.98;;;1.40;99.90;;;;;;1980059;72;21129;-74
2021/01/09 00:51:58;;;;;;;7.60;4.40;;;1.40;99.90;;;;;;1967328;72;21062;-74
2021/01/09 00:54:24;;;;;;;6.90;3.70;;;1.40;99.90;;;;;;1966928;72;21051;-73
2021/01/09 00:56:50;;;;;;;8.93;3.42;;;1.40;99.90;;;;;;1970634;72;21128;-73
2021/01/09 00:59:16;;;;;;;9.75;4.20;;;1.50;99.90;;;;;;1968581;72;21133;-74
2021/01/09 01:01:43;;;;;;;6.67;4.22;;;1.60;99.90;;;;;;1975471;72;21036;-73
2021/01/09 01:04:09;;;;;;;5.60;4.12;;;1.50;99.90;;;;;;1972073;72;21108;-73
2021/01/09 01:06:35;;;;;;;5.20;3.60;;;1.50;99.90;;;;;;1971282;72;21137;-73
2021/01/09 01:09:01;;;;;;;10.43;4.30;;;1.50;99.90;;;;;;1967595;72;22101;-73
2021/01/09 01:11:27;;;;;;;6.45;3.90;;;1.40;99.90;;;;;;1976381;72;21498;-74
2021/01/09 01:13:53;;;;;;;5.37;3.65;;;1.40;99.90;;;;;;1973864;72;21592;-73
2021/01/09 01:16:19;;;;;;;4.47;3.55;;;1.40;99.90;;;;;;1978207;72;21059;-74
2021/01/09 01:18:45;;;;;;;6.90;3.80;;;1.40;99.90;;;;;;1974348;72;21129;-73
2021/01/09 01:21:12;;;;;;;5.00;3.70;;;1.40;99.90;;;;;;1985572;72;21046;-73
2021/01/09 01:23:38;;;;;;;10.35;4.33;;;1.40;99.90;;;;;;1984421;72;21027;-73
2021/01/09 01:26:04;;;;;;;7.65;3.70;;;1.50;99.90;;;;;;1991004;72;21046;-72
2021/01/09 01:28:30;;;;;;;13.15;4.22;;;1.50;99.90;;;;;;1988670;72;21113;-72
2021/01/09 01:30:56;;;;;;;3.87;2.77;;;1.50;99.90;;;;;;1970208;72;21071;-72
2021/01/09 01:33:22;;;;;;;5.55;3.67;;;1.50;99.90;;;;;;1973455;72;21509;-74
2021/01/09 01:35:48;;;;;;;8.18;3.80;;;1.50;99.90;;;;;;1991053;72;21564;-75
2021/01/09 01:38:14;;;;;;;4.05;2.87;;;1.50;99.90;;;;;;1972228;72;21519;-75
2021/01/09 01:40:41;;;;;;;8.35;3.50;;;1.60;99.90;;;;;;1968164;72;21113;-74
2021/01/09 01:43:07;;;;;;;5.53;3.42;;;1.50;99.90;;;;;;1970075;72;21027;-73
2021/01/09 01:45:33;;;;;;;9.13;3.47;;;1.50;99.90;;;;;;1973865;72;21275;-73
2021/01/09 01:47:59;;;;;;;4.12;2.95;;;1.60;99.90;;;;;;1971177;72;21140;-74
2021/01/09 01:50:25;;;;;;;6.62;3.65;;;1.60;99.90;;;;;;1976269;72;21054;-74
2021/01/09 01:52:51;;;;;;;5.53;3.60;;;1.60;99.90;;;;;;1974189;72;21067;-72
2021/01/09 01:55:17;;;;;;;5.40;3.47;;;1.60;99.90;;;;;;1974485;73;21129;-72
2021/01/09 01:57:44;;;;;;;7.45;3.98;;;1.50;99.90;;;;;;1970670;72;21067;-72
2021/01/09 02:00:10;;;;;;;7.40;4.45;;;1.50;99.90;;;;;;1967440;72;21157;-72
2021/01/09 02:02:36;;;;;;;7.53;4.08;;;1.50;99.90;;;;;;1970036;72;21035;-74
2021/01/09 02:05:02;;;;;;;9.03;3.70;;;1.50;99.90;;;;;;1977693;72;21039;-75
2021/01/09 02:07:28;;;;;;;5.45;3.65;;;1.60;99.90;;;;;;1977078;72;21063;-74
2021/01/09 02:09:56;;;;;;;4.25;3.30;;;1.60;99.90;;;;;;1977129;72;21055;-72
2021/01/09 02:12:22;;;;;;;7.33;3.90;;;1.60;99.90;;;;;;1966475;72;21100;-73
2021/01/09 02:14:48;;;;;;;3.98;3.00;;;1.70;99.90;;;;;;1974088;73;21202;-72
2021/01/09 02:17:14;;;;;;;10.10;3.70;;;1.70;99.90;;;;;;1973534;72;21067;-72
2021/01/09 02:19:40;;;;;;;5.10;3.30;;;1.60;99.90;;;;;;1974201;73;21157;-72
2021/01/09 02:22:06;;;;;;;12.20;4.05;;;1.50;99.90;;;;;;1973479;72;21035;-72
2021/01/09 02:24:33;;;;;;;9.45;4.28;;;1.50;99.90;;;;;;1973236;72;21119;-72
2021/01/09 02:26:59;;;;;;;4.92;3.50;;;1.40;99.90;;;;;;1972669;72;21055;-74
2021/01/09 02:29:25;;;;;;;9.48;3.92;;;1.40;99.90;;;;;;1970658;72;21059;-74
2021/01/09 02:31:51;;;;;;;5.10;3.33;;;1.50;99.90;;;;;;1978139;72;21067;-74
2021/01/09 02:34:17;;;;;;;6.47;4.03;;;1.50;99.90;;;;;;1975708;72;21490;-73
2021/01/09 02:36:43;;;;;;;6.25;4.10;;;1.50;99.90;;;;;;1971683;72;21123;-72
2021/01/09 02:39:09;;;;;;;5.47;3.70;;;1.50;99.90;;;;;;1968840;72;21403;-73
2021/01/09 02:41:35;;;;;;;6.55;3.40;;;1.50;99.90;;;;;;1983766;72;21129;-74
2021/01/09 02:44:01;;;;;;;4.60;3.33;;;1.60;99.90;;;;;;1973976;72;21106;-73
2021/01/09 02:46:28;;;;;;;5.90;3.75;;;1.60;99.90;;;;;;1970352;72;21126;-74
2021/01/09 02:48:54;;;;;;;5.60;3.45;;;1.60;99.90;;;;;;1963687;72;21119;-73
2021/01/09 02:51:20;;;;;;;7.00;4.40;;;1.50;99.90;;;;;;1978838;72;21054;-73
2021/01/09 02:53:46;;;;;;;8.58;4.17;;;1.50;99.90;;;;;;1978235;72;21117;-73
2021/01/09 02:56:12;;;;;;;7.35;3.52;;;1.50;99.90;;;;;;1967126;72;21217;-73
2021/01/09 02:58:38;;;;;;;6.05;4.05;;;1.50;99.90;;;;;;1983614;72;21102;-72
2021/01/09 03:01:04;;;;;;;5.28;3.27;;;1.50;99.90;;;;;;1986002;72;21102;-72
2021/01/09 03:03:30;;;;;;;7.25;3.85;;;1.50;99.90;;;;;;1976730;72;21136;-74
2021/01/09 03:05:57;;;;;;;6.92;4.08;;;1.50;99.90;;;;;;1970780;72;21503;-73
2021/01/09 03:08:23;;;;;;;8.10;4.25;;;1.50;99.90;;;;;;1974174;72;21564;-74
2021/01/09 03:10:49;;;;;;;7.90;4.08;;;1.40;99.90;;;;;;1974107;72;21460;-74
2021/01/09 03:13:16;;;;;;;7.10;4.03;;;1.50;99.90;;;;;;1963390;72;21195;-73
2021/01/09 03:15:42;;;;;;;5.75;4.15;;;1.50;99.90;;;;;;1970643;72;21196;-73
2021/01/09 03:18:08;;;;;;;5.42;3.40;;;1.50;99.90;;;;;;1972226;72;21026;-72
2021/01/09 03:20:34;;;;;;;5.65;4.28;;;1.50;99.90;;;;;;1991124;72;21477;-73
2021/01/09 03:23:00;;;;;;;6.17;3.90;;;1.40;99.90;;;;;;1980836;72;21040;-73
2021/01/09 03:25:26;;;;;;;4.47;3.30;;;1.50;99.90;;;;;;1974033;73;21050;-74
2021/01/09 03:27:52;;;;;;;7.22;4.35;;;1.40;99.90;;;;;;1977520;72;21124;-72
2021/01/09 03:30:18;;;;;;;10.38;4.12;;;1.40;99.90;;;;;;1979083;72;21133;-73
2021/01/09 03:32:45;;;;;;;5.50;3.67;;;1.50;99.90;;;;;;1973502;72;21137;-73
2021/01/09 03:35:11;;;;;;;4.47;3.17;;;1.50;99.90;;;;;;1966100;72;21066;-73
2021/01/09 03:37:37;;;;;;;7.15;4.05;;;1.50;99.90;;;;;;1975865;72;21062;-74
2021/01/09 03:40:03;;;;;;;7.70;3.90;;;1.50;99.90;;;;;;1980715;72;21032;-73
2021/01/09 03:42:29;;;;;;;9.05;3.77;;;1.60;99.90;;;;;;1973961;73;21105;-73
2021/01/09 03:44:55;;;;;;;7.15;3.52;;;1.60;99.90;;;;;;1973986;72;21113;-74
2021/01/09 03:47:21;;;;;;;4.87;3.37;;;1.60;99.90;;;;;;1970714;72;21042;-74
2021/01/09 03:49:47;;;;;;;8.93;3.83;;;1.60;99.90;;;;;;1983571;72;21490;-74
2021/01/09 03:52:14;;;;;;;8.20;3.80;;;1.60;99.90;;;;;;1973951;73;21431;-74
2021/01/09 03:54:40;;;;;;;9.75;4.58;;;1.50;99.90;;;;;;1974118;73;21404;-73
2021/01/09 03:57:06;;;;;;;6.20;4.17;;;1.50;99.90;;;;;;1977064;72;21144;-73
2021/01/09 03:59:32;;;;;;;5.70;3.87;;;1.40;99.90;;;;;;1973721;72;21039;-73
2021/01/09 04:01:58;;;;;;;6.92;4.00;;;1.40;99.90;;;;;;1975783;72;21098;-73
2021/01/09 04:04:24;;;;;;;5.75;4.10;;;1.40;99.90;;;;;;1969044;72;21030;-74
2021/01/09 04:06:50;;;;;;;7.72;4.60;;;1.40;99.90;;;;;;1975151;72;21063;-73
2021/01/09 04:09:17;;;;;;;7.37;3.80;;;1.40;99.90;;;;;;1973986;73;21522;-73
2021/01/09 04:11:43;;;;;;;6.17;4.25;;;1.50;99.90;;;;;;1972912;72;21544;-73
2021/01/09 04:14:09;;;;;;;5.97;4.42;;;1.60;99.90;;;;;;1974308;72;21475;-73
2021/01/09 04:16:35;;;;;;;7.90;4.60;;;1.50;99.90;;;;;;1970439;72;21058;-74
2021/01/09 04:19:01;;;;;;;8.20;4.83;;;1.50;99.90;;;;;;1975436;72;21047;-74
2021/01/09 04:21:27;;;;;;;10.98;4.50;;;1.50;99.90;;;;;;1972515;72;21036;-73
2021/01/09 04:23:53;;;;;;;9.43;4.55;;;1.40;99.90;;;;;;1973596;72;21050;-73
2021/01/09 04:26:19;;;;;;;7.05;4.28;;;1.40;99.90;;;;;;1966235;72;21103;-73
2021/01/09 04:28:46;;;;;;;7.58;4.08;;;1.40;99.90;;;;;;1986147;72;21011;-73
2021/01/09 04:31:12;;;;;;;8.00;4.65;;;1.50;99.90;;;;;;1974838;72;21060;-72
2021/01/09 04:33:38;;;;;;;6.35;4.22;;;1.50;99.90;;;;;;1982519;72;21128;-72
2021/01/09 04:36:04;;;;;;;7.28;4.30;;;1.40;99.90;;;;;;1984462;72;21066;-73
2021/01/09 04:38:30;;;;;;;6.30;4.28;;;1.50;99.90;;;;;;1982666;72;21027;-74
2021/01/09 04:40:56;;;;;;;6.10;3.25;;;1.40;99.90;;;;;;1973527;72;21042;-73
2021/01/09 04:43:22;;;;;;;7.28;4.50;;;1.50;99.90;;;;;;1972331;72;21074;-73
2021/01/09 04:45:48;;;;;;;7.55;4.12;;;1.50;99.90;;;;;;1965441;72;21547;-74
2021/01/09 04:48:15;;;;;;;7.08;4.55;;;1.50;99.90;;;;;;1975414;72;21526;-73
2021/01/09 04:50:41;;;;;;;4.50;3.50;;;1.50;99.90;;;;;;1973232;72;21207;-73
2021/01/09 04:53:07;;;;;;;5.70;4.10;;;1.50;99.90;;;;;;1967044;72;21135;-73
2021/01/09 04:55:33;;;;;;;8.70;4.58;;;1.40;99.90;;;;;;1976513;72;21134;-71
2021/01/09 04:57:59;;;;;;;7.10;4.17;;;1.40;99.90;;;;;;1976649;72;21031;-73
2021/01/09 05:00:25;;;;;;;8.60;4.75;;;1.40;99.90;;;;;;1973834;73;21164;-72
2021/01/09 05:02:52;;;;;;;9.90;4.30;;;1.30;99.90;;;;;;1973209;72;21063;-74
2021/01/09 05:05:18;;;;;;;6.17;4.65;;;1.30;99.90;;;;;;1984217;72;21551;-73
2021/01/09 05:07:44;;;;;;;8.00;4.03;;;1.40;99.90;;;;;;1973940;72;21482;-73
2021/01/09 05:10:10;;;;;;;13.15;4.45;;;1.40;99.90;;;;;;1979983;72;21052;-74
2021/01/09 05:12:36;;;;;;;8.80;4.22;;;1.50;99.90;;;;;;1968128;72;21153;-74
2021/01/09 05:15:02;;;;;;;8.00;4.83;;;1.40;99.90;;;;;;1982507;72;21067;-72
2021/01/09 05:17:29;;;;;;;8.88;4.47;;;1.30;99.90;;;;;;1971236;72;21034;-71
2021/01/09 05:19:55;;;;;;;6.35;4.37;;;1.20;99.90;;;;;;1979831;72;21075;-72
2021/01/09 05:22:21;;;;;;;6.87;4.30;;;1.40;99.90;;;;;;1970328;72;21472;-73
2021/01/09 05:24:48;;;;;;;9.73;4.80;;;1.30;99.90;;;;;;1967259;72;21419;-74
2021/01/09 05:27:14;;;;;;;7.17;4.85;;;1.30;99.90;;;;;;1978062;72;21147;-71
2021/01/09 05:29:40;;;;;;;7.03;4.33;;;1.20;99.90;;;;;;1978045;72;21129;-73
2021/01/09 05:32:06;;;;;;;6.22;4.35;;;1.30;99.90;;;;;;1972054;72;21047;-73
2021/01/09 05:34:32;;;;;;;7.17;3.70;;;1.20;99.90;;;;;;1963907;72;21120;-74
2021/01/09 05:36:58;;;;;;;6.40;4.50;;;1.30;99.90;;;;;;1964554;72;21216;-74
2021/01/09 05:39:25;;;;;;;7.50;4.75;;;1.30;99.90;;;;;;1974419;72;21102;-74
2021/01/09 05:41:51;;;;;;;7.72;4.80;;;1.30;99.90;;;;;;1983066;72;21031;-73
2021/01/09 05:44:17;;;;;;;6.33;4.00;;;1.40;99.90;;;;;;1986394;72;21436;-73
2021/01/09 05:46:43;;;;;;;8.50;4.12;;;1.40;99.90;;;;;;1973983;72;21479;-73
2021/01/09 05:49:09;;;;;;;7.42;4.65;;;1.40;99.90;;;;;;1975320;72;21575;-73
2021/01/09 05:51:35;;;;;;;6.95;4.17;;;1.40;99.90;;;;;;1964357;72;21062;-73
2021/01/09 05:54:01;;;;;;;6.72;4.35;;;1.50;99.90;;;;;;1970288;72;21059;-74
2021/01/09 05:56:28;;;;;;;6.92;4.33;;;1.40;99.90;;;;;;1968782;72;21186;-74
2021/01/09 05:58:54;;;;;;;6.65;4.45;;;1.30;99.90;;;;;;1975320;72;21055;-73
2021/01/09 06:01:20;;;;;;;10.05;4.85;;;1.30;99.90;;;;;;1982516;72;21071;-74
2021/01/09 06:03:46;;;;;;;8.88;5.25;;;1.30;99.90;;;;;;1967940;72;21030;-74
2021/01/09 06:06:12;;;;;;;13.22;4.75;;;1.30;99.90;;;;;;1985682;72;21455;-74
2021/01/09 06:08:38;;;;;;;8.70;5.25;;;1.20;99.90;;;;;;1977006;72;21463;-74
2021/01/09 06:11:04;;;;;;;9.95;4.67;;;1.30;99.90;;;;;;1970691;72;21545;-73
2021/01/09 06:13:30;;;;;;;10.48;5.22;;;1.30;99.90;;;;;;1974096;73;21023;-73
2021/01/09 06:15:56;;;;;;;6.92;4.60;;;1.40;99.90;;;;;;1975558;72;21191;-72
2021/01/09 06:18:23;;;;;;;8.10;4.75;;;1.40;99.90;;;;;;1975178;72;21124;-73
2021/01/09 06:20:49;;;;;;;7.70;5.00;;;1.50;99.90;;;;;;1979404;72;21043;-74
2021/01/09 06:23:15;;;;;;;6.55;4.60;;;1.30;99.90;;;;;;1967935;72;21171;-72
2021/01/09 06:25:41;;;;;;;7.83;4.78;;;1.30;99.90;;;;;;1978470;72;21051;-74
2021/01/09 06:28:07;;;;;;;6.35;4.53;;;1.30;99.90;;;;;;1983717;72;21133;-74
2021/01/09 06:30:33;;;;;;;7.83;4.47;;;1.40;99.90;;;;;;1973966;72;21133;-74
2021/01/09 06:33:00;;;;;;;8.50;4.58;;;1.40;99.90;;;;;;1965388;72;21544;-74
2021/01/09 06:35:26;;;;;;;8.85;5.00;;;1.40;99.90;;;;;;1978007;72;21144;-72
2021/01/09 06:37:54;;;;;;;6.45;4.25;;;1.40;99.90;;;;;;1978422;72;21124;-74
2021/01/09 06:40:20;;;;;;;7.67;4.42;;;1.50;99.90;;;;;;1971237;72;21507;-73
2021/01/09 06:42:46;;;;;;;7.55;5.12;;;1.50;99.90;;;;;;1980244;72;21483;-74
2021/01/09 06:45:12;;;;;;;10.82;5.10;;;1.40;99.90;;;;;;1964916;72;21065;-74
2021/01/09 06:47:38;;;;;;;9.68;5.45;;;1.50;99.90;;;;;;1975263;72;21028;-73
2021/01/09 06:50:05;;;;;;;8.75;4.65;;;1.50;99.90;;;;;;1970573;72;21110;-72
2021/01/09 06:52:31;;;;;;;8.58;4.47;;;1.40;99.90;;;;;;1976250;72;21063;-72
2021/01/09 06:54:57;;;;;;;9.85;4.90;;;1.30;99.90;;;;;;1970723;72;21061;-72
2021/01/09 06:57:23;;;;;;;7.28;4.50;;;1.30;99.90;;;;;;1977422;72;21074;-73
2021/01/09 06:59:49;;;;;;;9.03;4.87;;;1.40;99.90;;;;;;1973103;72;21206;-71
2021/01/09 07:02:15;;;;;;;9.53;4.85;;;1.40;99.90;;;;;;1973980;73;21546;-74
2021/01/09 07:04:42;;;;;;;9.88;5.67;;;1.40;99.90;;;;;;1970481;72;21140;-74
2021/01/09 07:07:08;;;;;;;13.75;5.22;;;1.40;99.90;;;;;;1970225;72;21046;-75
2021/01/09 07:09:34;;;;;;;11.57;5.12;;;1.40;99.90;;;;;;1976302;72;21021;-73
2021/01/09 07:12:00;;;;;;;9.03;5.72;;;1.40;99.90;;;;;;1974009;72;21063;-72
2021/01/09 07:14:26;;;;;;;14.47;6.28;;;1.30;99.90;;;;;;1961226;72;21123;-74
2021/01/09 07:16:52;;;;;;;11.83;5.40;;;1.10;99.90;;;;;;1978103;72;21144;-72
2021/01/09 07:19:18;;;;;;;12.33;6.03;;;1.10;99.90;;;;;;1972244;72;21054;-72
2021/01/09 07:21:45;;;;;;;10.03;6.17;;;1.10;99.90;;;;;;1985117;72;21455;-72
2021/01/09 07:24:11;;;;;;;10.60;4.92;;;1.20;99.90;;;;;;1973808;72;21439;-72
2021/01/09 07:26:37;;;;;;;9.15;5.70;;;1.30;99.90;;;;;;1966293;72;21458;-74
2021/01/09 07:29:03;;;;;;;10.90;6.50;;;1.30;99.90;;;;;;1965995;72;21506;-73
2021/01/09 07:31:30;;;;;;;10.23;5.47;;;1.30;99.90;;;;;;1974349;72;21116;-71
2021/01/09 07:33:56;;;;;;;8.15;5.75;;;1.40;99.90;;;;;;1967128;72;21071;-74
2021/01/09 07:36:22;;;;;;;10.40;6.17;;;1.30;99.90;;;;;;1974149;72;21075;-72
2021/01/09 07:38:48;;;;;;;9.73;5.53;;;1.30;99.90;;;;;;1973501;72;21055;-74
2021/01/09 07:41:14;;;;;;;12.80;6.65;;;1.30;99.90;;;;;;1971314;72;21089;-72
2021/01/09 07:43:45;;;;;;;10.38;6.53;;;1.30;99.90;;;;;;1983631;72;21479;-73
2021/01/09 07:46:08;;;;;;;9.58;6.20;;;1.40;99.90;;;;;;1973149;72;21073;-71
2021/01/09 07:48:34;;;;;;;11.63;6.08;;;1.50;99.90;;;;;;1970685;72;21203;-73
2021/01/09 07:51:00;;;;;;;11.73;6.08;;;1.60;99.90;;;;;;1982432;72;21070;-71
2021/01/09 07:53:27;;;;;;;10.13;5.40;;;1.60;99.90;;;;;;1974837;72;21068;-73
2021/01/09 07:55:53;;;;;;;12.40;6.35;;;1.50;99.90;;;;;;1974168;72;21063;-73
2021/01/09 07:58:19;;;;;;;15.25;7.05;;;1.40;99.90;;;;;;1969945;72;21023;-74
2021/01/09 08:00:45;;;;;;;13.20;6.87;;;1.40;99.90;;;;;;1974176;73;21054;-73
2021/01/09 08:03:11;;;;;;;10.63;5.90;;;1.40;99.90;;;;;;1980519;72;21120;-71
2021/01/09 08:05:37;;;;;;;14.50;6.78;;;1.40;99.90;;;;;;1979850;72;21055;-71
2021/01/09 08:08:04;;;;;;;12.75;6.25;;;1.40;99.90;;;;;;1967115;72;21059;-74
2021/01/09 08:10:30;;;;;;;8.68;5.85;;;1.50;99.90;;;;;;1974143;73;21063;-74
2021/01/09 08:12:56;;;;;;;16.67;6.17;;;1.50;99.90;;;;;;1974075;73;21149;-72
2021/01/09 08:15:22;;;;;;;12.93;6.55;;;1.60;99.90;;;;;;1978559;72;21116;-75
2021/01/09 08:17:48;;;;;;;11.30;6.75;;;1.70;99.90;;;;;;1971070;72;21075;-73
2021/01/09 08:20:14;;;;;;;13.72;6.95;;;1.60;99.90;;;;;;1974241;72;21685;-73
2021/01/09 08:22:40;;;;;;;9.90;6.22;;;1.60;99.90;;;;;;1976509;72;21058;-73
2021/01/09 08:25:06;;;;;;;14.45;6.80;;;1.60;99.90;;;;;;1973329;72;21066;-76
2021/01/09 08:27:33;;;;;;;14.25;7.28;;;1.60;99.90;;;;;;1973666;72;21058;-74
2021/01/09 08:29:59;;;;;;;13.88;7.50;;;1.60;99.90;;;;;;1983453;72;21063;-74
2021/01/09 08:32:25;;;;;;;12.78;7.72;;;1.50;99.90;;;;;;1974164;73;21080;-74
2021/01/09 08:34:51;;;;;;;12.05;7.97;;;1.50;99.90;;;;;;1973925;72;21063;-73
2021/01/09 08:37:19;;;;;;;11.40;7.03;;;1.70;99.90;;;;;;1978779;72;21056;-74
2021/01/09 08:39:45;;;;;;;17.75;8.55;;;1.80;99.90;;;;;;1968375;72;21136;-78
2021/01/09 08:42:11;;;;;;;14.27;8.60;;;1.80;99.90;;;;;;1973222;72;21136;-75
2021/01/09 08:44:37;;;;;;;16.93;8.20;;;1.90;99.90;;;;;;1970781;72;21120;-74
2021/01/09 08:47:03;;;;;;;16.90;7.78;;;2.00;99.90;;;;;;1973976;73;21032;-74
2021/01/09 08:49:35;;;;;;;11.65;7.97;;;2.00;99.90;;;;;;1967498;72;21117;-73
2021/01/09 08:51:59;;;;;;;15.03;7.60;;;2.00;99.90;;;;;;1971671;72;21058;-74
2021/01/09 08:54:25;;;;;;;14.10;7.08;;;2.20;99.90;;;;;;1982573;72;21115;-75
2021/01/09 08:56:52;;;;;;;19.30;8.05;;;2.10;99.90;;;;;;1976634;72;21133;-74
2021/01/09 08:59:18;;;;;;;12.13;7.05;;;2.10;99.90;;;;;;1972996;72;21132;-74
2021/01/09 09:01:44;;;;;;;15.32;7.97;;;2.10;99.90;;;;;;1989115;72;21028;-74
2021/01/09 09:04:10;;;;;;;14.45;8.10;;;2.20;99.90;;;;;;1982856;72;21120;-75
2021/01/09 09:06:36;;;;;;;17.70;8.60;;;2.00;99.90;;;;;;1973564;72;21147;-75
2021/01/09 09:09:02;;;;;;;14.90;8.03;;;2.00;99.90;;;;;;1970223;72;21482;-75
2021/01/09 09:11:29;;;;;;;15.55;8.28;;;2.10;99.90;;;;;;1973831;72;21572;-74
2021/01/09 09:13:55;;;;;;;14.05;8.35;;;2.10;99.90;;;;;;1977233;72;21453;-75
2021/01/09 09:16:21;;;;;;;26.65;10.40;;;2.10;99.90;;;;;;1976511;72;21484;-73
2021/01/09 09:18:47;;;;;;;15.72;7.85;;;2.10;99.90;;;;;;1970695;72;21068;-74
2021/01/09 09:21:13;;;;;;;16.67;8.98;;;2.20;99.90;;;;;;1973944;72;21051;-74
2021/01/09 09:23:39;;;;;;;13.65;8.25;;;2.30;99.90;;;;;;1973895;72;21108;-76
2021/01/09 09:26:05;;;;;;;21.27;10.58;;;2.30;99.90;;;;;;1978666;72;21128;-76
2021/01/09 09:28:31;;;;;;;24.25;10.43;;;2.20;99.90;;;;;;1973916;72;21067;-76
2021/01/09 09:30:58;;;;;;;17.15;9.10;;;2.20;99.90;;;;;;1973866;72;21040;-76
2021/01/09 09:33:24;;;;;;;14.20;9.00;;;2.30;99.90;;;;;;1974023;73;21055;-74
2021/01/09 09:35:50;;;;;;;22.85;9.68;;;2.30;99.90;;;;;;1972812;72;21059;-74
2021/01/09 09:38:17;;;;;;;16.12;9.40;;;2.20;99.90;;;;;;1974272;72;21052;-74
2021/01/09 09:40:43;;;;;;;16.82;9.23;;;2.10;99.90;;;;;;1970350;72;21054;-75
2021/01/09 09:43:09;;;;;;;16.02;7.97;;;2.10;99.90;;;;;;1948404;72;21128;-74
2021/01/09 09:45:35;;;;;;;28.23;9.60;;;2.20;99.90;;;;;;1971979;72;21136;-77
2021/01/09 09:48:01;;;;;;;18.62;7.90;;;2.10;99.90;;;;;;1971580;72;21490;-75
2021/01/09 09:50:27;;;;;;;13.20;7.85;;;2.20;99.90;;;;;;1982482;72;21456;-75
2021/01/09 09:52:53;;;;;;;16.87;8.53;;;2.20;99.90;;;;;;1972326;72;21537;-73
2021/01/09 09:55:19;;;;;;;13.60;7.80;;;2.30;99.90;;;;;;1970861;72;21054;-76
2021/01/09 09:57:45;;;;;;;14.47;8.35;;;2.10;99.90;;;;;;1971402;72;21219;-75
2021/01/09 10:00:12;;;;;;;15.00;8.00;;;2.10;99.90;;;;;;1973526;72;21081;-75
2021/01/09 10:02:38;;;;;;;12.13;7.28;;;2.00;99.90;;;;;;1973244;72;21173;-75
2021/01/09 10:05:04;;;;;;;15.28;8.48;;;1.90;99.90;;;;;;1977104;72;21071;-76
2021/01/09 10:07:30;;;;;;;14.07;7.00;;;2.20;99.90;;;;;;1977178;72;21031;-73
2021/01/09 10:09:56;;;;;;;19.07;9.23;;;2.50;99.90;;;;;;1973887;72;21114;-72
2021/01/09 10:12:22;;;;;;;12.20;7.25;;;2.70;99.90;;;;;;1969787;72;21205;-74
2021/01/09 10:14:48;;;;;;;13.05;7.45;;;3.10;99.90;;;;;;1978617;72;21553;-74
2021/01/09 10:17:15;;;;;;;13.98;8.30;;;3.20;99.90;;;;;;1969664;72;21482;-74
2021/01/09 10:19:41;;;;;;;14.45;7.97;;;2.90;99.90;;;;;;1971809;72;21543;-75
2021/01/09 10:22:07;;;;;;;17.15;8.45;;;2.50;99.90;;;;;;1971974;72;21043;-74
2021/01/09 10:24:33;;;;;;;18.10;9.20;;;2.60;99.90;;;;;;1976636;72;21055;-75
2021/01/09 10:26:59;;;;;;;16.02;8.75;;;2.60;99.90;;;;;;1973942;72;21159;-75
2021/01/09 10:29:25;;;;;;;14.78;8.90;;;2.70;99.90;;;;;;1969333;72;21092;-75
2021/01/09 10:31:51;;;;;;;18.87;9.03;;;2.90;99.90;;;;;;1984541;72;21058;-75
2021/01/09 10:34:17;;;;;;;15.65;8.75;;;2.80;99.90;;;;;;1976415;72;21036;-74
2021/01/09 10:36:43;;;;;;;19.23;9.23;;;2.60;99.90;;;;;;1973921;72;21057;-75
2021/01/09 10:39:10;;;;;;;20.12;9.53;;;2.50;99.90;;;;;;1970900;72;21099;-75
2021/01/09 10:41:36;;;;;;;19.65;9.68;;;2.50;99.90;;;;;;1974681;72;21088;-74
2021/01/09 10:44:02;;;;;;;19.77;9.38;;;2.50;99.90;;;;;;1971030;72;21498;-75
2021/01/09 10:46:28;;;;;;;23.50;9.78;;;2.70;99.90;;;;;;1971014;72;21100;-75
2021/01/09 10:48:54;;;;;;;16.17;9.13;;;2.60;99.90;;;;;;1974306;73;21072;-75
2021/01/09 10:51:20;;;;;;;16.77;9.25;;;2.80;99.90;;;;;;1971005;72;21125;-75
2021/01/09 10:53:46;;;;;;;14.58;8.20;;;2.80;99.90;;;;;;1974196;73;21132;-75
2021/01/09 10:56:13;;;;;;;15.18;8.98;;;2.80;99.90;;;;;;1977662;72;21060;-74
2021/01/09 10:58:39;;;;;;;13.98;9.00;;;2.80;99.90;;;;;;1968821;72;21186;-74
2021/01/09 11:01:05;;;;;;;15.80;8.30;;;2.90;99.90;;;;;;1973867;72;21125;-74
2021/01/09 11:03:32;;;;;;;16.85;8.90;;;3.10;99.90;;;;;;1963472;72;21071;-74
2021/01/09 11:05:59;;;;;;;25.25;10.75;;;3.20;99.90;;;;;;1970706;72;21063;-75
2021/01/09 11:08:25;;;;;;;15.83;9.25;;;3.30;99.90;;;;;;1968346;72;21058;-75
2021/01/09 11:10:51;;;;;;;17.35;8.33;;;3.50;99.90;;;;;;1975228;72;21644;-74
2021/01/09 11:13:17;;;;;;;10.15;7.20;;;3.80;99.90;;;;;;1977291;72;21110;-75
2021/01/09 11:15:43;;;;;;;13.75;6.92;;;4.30;99.90;;;;;;1972918;72;21051;-75
2021/01/09 11:18:09;;;;;;;15.40;7.10;;;4.50;99.90;;;;;;1970599;72;21140;-75
2021/01/09 11:20:35;;;;;;;11.20;6.95;;;4.00;99.90;;;;;;1970631;72;21028;-75
2021/01/09 11:23:02;;;;;;;13.38;7.20;;;3.80;99.90;;;;;;1970733;72;21036;-72
2021/01/09 11:25:28;;;;;;;17.20;7.72;;;3.60;99.90;;;;;;1968697;72;21115;-74
2021/01/09 11:27:54;;;;;;;13.70;6.97;;;3.60;99.90;;;;;;1971547;72;21201;-74
2021/01/09 11:30:20;;;;;;;12.07;6.33;;;3.60;99.90;;;;;;1973965;73;21451;-74
2021/01/09 11:32:46;;;;;;;11.05;6.53;;;3.50;99.90;;;;;;1973982;72;21471;-73
2021/01/09 11:35:12;;;;;;;10.60;6.37;;;3.40;99.90;;;;;;1976288;72;21285;-80
2021/01/09 11:37:38;;;;;;;10.63;6.20;;;3.30;99.90;;;;;;1973894;72;21049;-79
2021/01/09 11:40:04;;;;;;;12.98;5.60;;;3.30;99.90;;;;;;1973796;72;21063;-79
2021/01/09 11:42:31;;;;;;;7.35;4.55;;;3.10;99.90;;;;;;1977550;72;21133;-81
2021/01/09 11:44:57;;;;;;;9.88;5.25;;;3.10;99.90;;;;;;1988347;72;21141;-79
2021/01/09 11:47:23;;;;;;;10.85;5.42;;;3.20;99.90;;;;;;1968253;72;21056;-77
2021/01/09 11:49:49;;;;;;;7.17;4.35;;;3.10;99.90;;;;;;1972860;72;21109;-78
2021/01/09 11:52:15;;;;;;;10.65;4.90;;;3.10;99.90;;;;;;1973922;72;21040;-79
2021/01/09 11:54:41;;;;;;;9.03;5.70;;;3.20;99.90;;;;;;1975167;72;21050;-77
2021/01/09 11:57:07;;;;;;;16.00;5.58;;;3.10;99.90;;;;;;1970999;72;21146;-80
2021/01/09 11:59:33;;;;;;;10.15;5.35;;;3.30;99.90;;;;;;1977440;72;21047;-78
2021/01/09 12:01:59;;;;;;;10.90;5.75;;;3.20;99.90;;;;;;1948557;73;21051;-78
2021/01/09 12:04:26;;;;;;;9.23;5.10;;;3.50;99.90;;;;;;1974314;73;21091;-77
2021/01/09 12:06:52;;;;;;;8.70;5.30;;;3.60;99.90;;;;;;1967780;72;21027;-76
2021/01/09 12:09:18;;;;;;;6.45;4.12;;;4.00;99.90;;;;;;1977981;72;21506;-76
2021/01/09 12:11:44;;;;;;;7.47;4.67;;;4.00;99.90;;;;;;1974606;72;21479;-76
2021/01/09 12:14:10;;;;;;;9.60;5.37;;;3.90;99.90;;;;;;1974306;72;21056;-76
2021/01/09 12:16:36;;;;;;;17.00;4.28;;;3.40;99.90;;;;;;1971153;72;21445;-75
2021/01/09 12:19:02;;;;;;;9.55;5.08;;;3.40;99.90;;;;;;1967094;72;21117;-77
2021/01/09 12:21:29;;;;;;;10.28;5.87;;;3.60;99.90;;;;;;1973903;72;21063;-81
2021/01/09 12:23:55;;;;;;;7.55;4.95;;;3.80;99.90;;;;;;1974284;72;21530;-78
2021/01/09 12:26:21;;;;;;;9.95;4.70;;;3.80;99.90;;;;;;1974298;72;21063;-79
2021/01/09 12:28:47;;;;;;;6.65;4.45;;;4.30;99.90;;;;;;1970392;72;21054;-78
2021/01/09 12:31:13;;;;;;;9.30;4.92;;;4.60;99.90;;;;;;1984277;72;21128;-78
2021/01/09 12:33:40;;;;;;;10.38;4.55;;;3.50;99.90;;;;;;1974421;73;21498;-79
2021/01/09 12:36:06;;;;;;;6.25;4.30;;;3.40;99.90;;;;;;1971068;72;21097;-79
2021/01/09 12:38:33;;;;;;;5.62;3.92;;;3.50;99.90;;;;;;1980300;72;21064;-78
2021/01/09 12:40:59;;;;;;;6.40;3.75;;;2.80;99.90;;;;;;1974694;73;21032;-79
2021/01/09 12:43:25;;;;;;;9.50;4.00;;;3.00;99.90;;;;;;1974497;72;21129;-79
2021/01/09 12:45:51;;;;;;;8.45;4.33;;;2.60;99.90;;;;;;1974528;72;21067;-79